createdAt,value
2017-02-04T00:00:26.146Z,98.61
2017-02-04T00:01:26.528Z,98.48
2017-02-04T00:02:27.058Z,98.34
2017-02-04T00:03:27.590Z,98.12
2017-02-04T00:04:28.155Z,97.96
2017-02-04T00:05:28.653Z,97.77
2017-02-04T00:06:29.181Z,97.74
2017-02-04T00:07:29.857Z,97.55
2017-02-04T00:08:30.383Z,97.47
2017-02-04T00:09:30.915Z,97.34
2017-02-04T00:10:31.331Z,97.36
2017-02-04T00:11:31.821Z,97.39
2017-02-04T00:12:32.355Z,97.66
2017-02-04T00:13:32.894Z,97.74
2017-02-04T00:14:33.564Z,97.83
2017-02-04T00:15:33.986Z,97.93
2017-02-04T00:16:34.481Z,98.02
2017-02-04T00:17:35.051Z,98.10
2017-02-04T00:18:35.556Z,98.12
2017-02-04T00:19:36.239Z,98.10
2017-02-04T00:20:36.623Z,98.12
2017-02-04T00:21:37.152Z,98.12
2017-02-04T00:22:37.694Z,98.12
2017-02-04T00:23:38.361Z,98.12
2017-02-04T00:24:38.741Z,98.15
2017-02-04T00:25:39.421Z,98.18
2017-02-04T00:26:39.807Z,98.15
2017-02-04T00:27:40.335Z,98.12
2017-02-04T00:28:40.863Z,98.10
2017-02-04T00:29:41.394Z,98.10
2017-02-04T00:30:42.068Z,98.10
2017-02-04T00:31:42.471Z,98.29
2017-02-04T00:32:42.987Z,98.53
2017-02-04T00:33:43.522Z,98.64
2017-02-04T00:34:44.049Z,98.77
2017-02-04T00:35:44.572Z,98.80
2017-02-04T00:36:45.100Z,98.80
2017-02-04T00:37:45.636Z,98.83
2017-02-04T00:38:46.159Z,98.96
2017-02-04T00:39:46.707Z,99.26
2017-02-04T00:40:47.368Z,99.26
2017-02-04T00:41:47.747Z,99.23
2017-02-04T00:42:48.282Z,99.15
2017-02-04T00:43:48.812Z,99.23
2017-02-04T00:44:49.339Z,99.23
2017-02-04T00:45:50.017Z,99.26
2017-02-04T00:46:50.395Z,99.26
2017-02-04T00:47:50.927Z,99.23
2017-02-04T00:48:51.483Z,99.34
2017-02-04T00:49:51.982Z,99.40
2017-02-04T00:50:52.515Z,99.45
2017-02-04T00:51:53.054Z,99.37
2017-02-04T00:52:53.579Z,99.40
2017-02-04T00:53:54.259Z,99.34
2017-02-04T00:54:54.636Z,99.34
2017-02-04T00:55:55.169Z,99.37
2017-02-04T00:56:55.705Z,99.32
2017-02-04T00:57:56.235Z,99.34
2017-02-04T00:58:56.770Z,99.29
2017-02-04T00:59:57.335Z,99.29
2017-02-04T01:00:57.833Z,99.23
2017-02-04T01:01:58.518Z,99.21
2017-02-04T01:02:58.902Z,99.18
2017-02-04T01:03:59.434Z,99.15
2017-02-04T01:05:00.108Z,99.07
2017-02-04T01:06:00.493Z,99.02
2017-02-04T01:07:01.023Z,99.02
2017-02-04T01:08:01.706Z,98.94
2017-02-04T01:09:02.233Z,98.94
2017-02-04T01:10:02.762Z,98.85
2017-02-04T01:11:03.293Z,98.80
2017-02-04T01:12:03.677Z,98.80
2017-02-04T01:13:04.351Z,98.64
2017-02-04T01:14:04.883Z,98.50
2017-02-04T01:15:05.268Z,98.45
2017-02-04T01:16:05.944Z,98.29
2017-02-04T01:17:06.326Z,98.40
2017-02-04T01:18:06.858Z,98.29
2017-02-04T01:19:07.388Z,98.26
2017-02-04T01:20:08.212Z,98.04
2017-02-04T01:21:08.588Z,97.83
2017-02-04T01:22:08.970Z,97.72
2017-02-04T01:23:09.507Z,97.66
2017-02-04T01:24:10.036Z,97.61
2017-02-04T01:25:10.586Z,97.55
2017-02-04T01:26:11.093Z,97.50
2017-02-04T01:27:11.645Z,97.53
2017-02-04T01:28:12.303Z,97.55
2017-02-04T01:29:12.682Z,97.64
2017-02-04T01:30:13.362Z,97.88
2017-02-04T01:31:13.748Z,98.02
2017-02-04T01:32:14.427Z,98.15
2017-02-04T01:33:14.809Z,98.26
2017-02-04T01:34:15.486Z,98.37
2017-02-04T01:35:15.866Z,98.37
2017-02-04T01:36:16.393Z,98.42
2017-02-04T01:37:16.925Z,98.53
2017-02-04T01:38:17.602Z,98.59
2017-02-04T01:39:17.985Z,98.50
2017-02-04T01:40:18.668Z,98.45
2017-02-04T01:41:19.200Z,98.42
2017-02-04T01:42:19.735Z,98.34
2017-02-04T01:43:20.121Z,98.29
2017-02-04T01:44:20.662Z,98.10
2017-02-04T01:45:21.184Z,97.93
2017-02-04T01:46:21.716Z,97.69
2017-02-04T01:47:22.250Z,97.61
2017-02-04T01:48:22.779Z,97.53
2017-02-04T01:49:23.308Z,97.47
2017-02-04T01:50:23.849Z,97.36
2017-02-04T01:51:24.370Z,97.50
2017-02-04T01:52:25.049Z,97.64
2017-02-04T01:53:25.429Z,97.47
2017-02-04T01:54:25.964Z,97.39
2017-02-04T01:55:26.489Z,97.15
2017-02-04T01:56:27.019Z,96.93
2017-02-04T01:57:27.550Z,96.72
2017-02-04T01:58:28.083Z,96.50
2017-02-04T01:59:28.610Z,96.31
2017-02-04T02:00:29.290Z,96.31
2017-02-04T02:01:29.678Z,96.36
2017-02-04T02:02:30.207Z,96.36
2017-02-04T02:03:30.739Z,96.34
2017-02-04T02:04:31.280Z,96.26
2017-02-04T02:05:31.808Z,96.23
2017-02-04T02:06:32.334Z,96.28
2017-02-04T02:07:32.865Z,96.26
2017-02-04T02:08:33.396Z,96.53
2017-02-04T02:09:33.925Z,96.85
2017-02-04T02:10:34.455Z,96.88
2017-02-04T02:11:34.984Z,96.99
2017-02-04T02:12:35.520Z,97.04
2017-02-04T02:13:36.046Z,97.07
2017-02-04T02:14:36.576Z,97.26
2017-02-04T02:15:37.108Z,97.36
2017-02-04T02:16:37.637Z,97.28
2017-02-04T02:17:38.167Z,97.12
2017-02-04T02:18:38.695Z,97.04
2017-02-04T02:19:39.227Z,97.07
2017-02-04T02:20:39.907Z,96.85
2017-02-04T02:21:40.292Z,96.66
2017-02-04T02:22:40.833Z,96.61
2017-02-04T02:23:41.365Z,96.42
2017-02-04T02:24:41.895Z,96.31
2017-02-04T02:25:42.571Z,96.23
2017-02-04T02:26:42.964Z,96.02
2017-02-04T02:27:43.494Z,95.64
2017-02-04T02:28:44.018Z,95.39
2017-02-04T02:29:44.550Z,95.42
2017-02-04T02:30:45.229Z,95.07
2017-02-04T02:31:45.755Z,94.88
2017-02-04T02:32:46.289Z,94.64
2017-02-04T02:33:46.688Z,94.34
2017-02-04T02:34:47.199Z,94.18
2017-02-04T02:35:47.734Z,94.18
2017-02-04T02:36:48.267Z,94.18
2017-02-04T02:37:48.795Z,94.21
2017-02-04T02:38:49.358Z,94.23
2017-02-04T02:39:50.006Z,94.15
2017-02-04T02:40:50.388Z,94.15
2017-02-04T02:41:50.915Z,94.07
2017-02-04T02:42:51.460Z,93.67
2017-02-04T02:43:51.979Z,93.48
2017-02-04T02:44:52.507Z,93.51
2017-02-04T02:45:53.038Z,93.56
2017-02-04T02:46:53.576Z,93.59
2017-02-04T02:47:54.103Z,93.78
2017-02-04T02:48:54.643Z,94.10
2017-02-04T02:49:55.167Z,94.23
2017-02-04T02:50:55.706Z,94.31
2017-02-04T02:51:56.231Z,94.75
2017-02-04T02:52:56.776Z,94.67
2017-02-04T02:53:57.293Z,94.83
2017-02-04T02:54:57.965Z,94.75
2017-02-04T02:55:58.349Z,94.80
2017-02-04T02:56:58.887Z,94.72
2017-02-04T02:57:59.412Z,94.45
2017-02-04T02:58:59.944Z,94.21
2017-02-04T03:00:00.472Z,94.21
2017-02-04T03:01:01.004Z,94.29
2017-02-04T03:02:01.537Z,94.45
2017-02-04T03:03:02.078Z,94.53
2017-02-04T03:04:02.749Z,94.61
2017-02-04T03:05:03.291Z,94.75
2017-02-04T03:06:03.669Z,94.56
2017-02-04T03:07:04.203Z,94.80
2017-02-04T03:08:04.739Z,94.91
2017-02-04T03:09:05.265Z,95.04
2017-02-04T03:10:05.791Z,94.96
2017-02-04T03:11:06.469Z,94.72
2017-02-04T03:12:06.853Z,94.80
2017-02-04T03:13:07.527Z,94.86
2017-02-04T03:14:07.910Z,94.83
2017-02-04T03:15:08.443Z,94.69
2017-02-04T03:16:08.974Z,94.86
2017-02-04T03:17:09.503Z,94.96
2017-02-04T03:18:10.039Z,94.67
2017-02-04T03:19:10.715Z,94.42
2017-02-04T03:20:11.240Z,94.42
2017-02-04T03:21:11.776Z,94.42
2017-02-04T03:22:12.160Z,94.83
2017-02-04T03:23:12.687Z,94.88
2017-02-04T03:24:13.216Z,95.18
2017-02-04T03:25:13.749Z,95.15
2017-02-04T03:26:14.277Z,95.10
2017-02-04T03:27:14.810Z,95.07
2017-02-04T03:28:15.338Z,95.31
2017-02-04T03:29:15.880Z,95.42
2017-02-04T03:30:16.408Z,95.34
2017-02-04T03:31:16.943Z,95.61
2017-02-04T03:32:17.474Z,95.64
2017-02-04T03:33:18.148Z,95.64
2017-02-04T03:34:18.526Z,95.75
2017-02-04T03:35:19.067Z,96.17
2017-02-04T03:36:19.591Z,95.88
2017-02-04T03:37:20.125Z,95.56
2017-02-04T03:38:20.651Z,95.23
2017-02-04T03:39:21.332Z,95.07
2017-02-04T03:40:21.727Z,95.07
2017-02-04T03:41:22.394Z,94.96
2017-02-04T03:42:22.780Z,94.56
2017-02-04T03:43:23.315Z,94.34
2017-02-04T03:44:23.841Z,94.04
2017-02-04T03:45:24.372Z,94.04
2017-02-04T03:46:24.907Z,94.02
2017-02-04T03:47:25.448Z,94.12
2017-02-04T03:48:25.969Z,94.18
2017-02-04T03:49:26.648Z,94.10
2017-02-04T03:50:27.031Z,93.99
2017-02-04T03:51:27.707Z,93.64
2017-02-04T03:52:28.090Z,93.70
2017-02-04T03:53:28.766Z,93.78
2017-02-04T03:54:29.157Z,93.94
2017-02-04T03:55:29.829Z,94.07
2017-02-04T03:56:30.211Z,94.23
2017-02-04T03:57:30.755Z,94.34
2017-02-04T03:58:31.433Z,94.53
2017-02-04T03:59:31.811Z,94.40
2017-02-04T04:00:32.338Z,94.42
2017-02-04T04:01:33.012Z,94.42
2017-02-04T04:02:33.392Z,94.59
2017-02-04T04:03:33.935Z,94.61
2017-02-04T04:04:34.465Z,94.69
2017-02-04T04:05:34.996Z,94.67
2017-02-04T04:06:35.517Z,94.50
2017-02-04T04:07:36.196Z,94.67
2017-02-04T04:08:36.575Z,94.67
2017-02-04T04:09:37.109Z,94.50
2017-02-04T04:10:37.637Z,94.40
2017-02-04T04:11:38.184Z,94.12
2017-02-04T04:12:38.696Z,93.94
2017-02-04T04:13:39.232Z,93.94
2017-02-04T04:14:39.758Z,94.10
2017-02-04T04:15:40.292Z,93.99
2017-02-04T04:16:40.816Z,93.85
2017-02-04T04:17:41.495Z,93.72
2017-02-04T04:18:42.026Z,93.59
2017-02-04T04:19:42.562Z,93.51
2017-02-04T04:20:42.943Z,93.40
2017-02-04T04:21:43.479Z,93.24
2017-02-04T04:22:44.001Z,93.10
2017-02-04T04:23:44.543Z,92.49
2017-02-04T04:24:45.072Z,92.38
2017-02-04T04:25:45.601Z,92.16
2017-02-04T04:26:46.134Z,91.92
2017-02-04T04:27:46.817Z,91.79
2017-02-04T04:28:47.206Z,91.97
2017-02-04T04:29:47.884Z,91.97
2017-02-04T04:30:48.277Z,91.76
2017-02-04T04:31:48.813Z,91.68
2017-02-04T04:32:49.325Z,91.55
2017-02-04T04:33:49.855Z,91.07
2017-02-04T04:34:50.391Z,91.17
2017-02-04T04:35:51.066Z,91.14
2017-02-04T04:36:51.447Z,91.11
2017-02-04T04:37:52.266Z,90.88
2017-02-04T04:38:52.498Z,90.74
2017-02-04T04:39:53.178Z,90.77
2017-02-04T04:40:53.560Z,91.01
2017-02-04T04:41:54.239Z,90.58
2017-02-04T04:42:54.620Z,90.80
2017-02-04T04:43:55.154Z,90.71
2017-02-04T04:44:55.681Z,90.58
2017-02-04T04:45:56.216Z,90.28
2017-02-04T04:46:56.741Z,90.05
2017-02-04T04:47:57.415Z,89.80
2017-02-04T04:48:57.806Z,89.64
2017-02-04T04:49:58.333Z,89.83
2017-02-04T04:50:58.865Z,89.86
2017-02-04T04:51:59.393Z,90.69
2017-02-04T04:52:59.924Z,90.36
2017-02-04T04:54:00.458Z,89.88
2017-02-04T04:55:00.983Z,89.48
2017-02-04T04:56:01.525Z,89.59
2017-02-04T04:57:02.044Z,89.24
2017-02-04T04:58:02.574Z,89.24
2017-02-04T04:59:03.105Z,88.81
2017-02-04T05:00:03.643Z,89.06
2017-02-04T05:01:04.170Z,89.16
2017-02-04T05:02:04.846Z,89.27
2017-02-04T05:03:05.232Z,88.92
2017-02-04T05:04:05.764Z,89.27
2017-02-04T05:05:06.297Z,89.62
2017-02-04T05:06:06.826Z,89.27
2017-02-04T05:07:07.499Z,89.22
2017-02-04T05:08:07.890Z,89.37
2017-02-04T05:09:08.430Z,88.87
2017-02-04T05:10:08.972Z,88.81
2017-02-04T05:11:09.501Z,87.98
2017-02-04T05:12:10.182Z,88.33
2017-02-04T05:13:10.566Z,88.95
2017-02-04T05:14:11.242Z,88.46
2017-02-04T05:15:11.627Z,88.46
2017-02-04T05:16:12.161Z,88.97
2017-02-04T05:17:12.981Z,88.15
2017-02-04T05:18:13.360Z,88.28
2017-02-04T05:19:13.743Z,88.54
2017-02-04T05:20:14.281Z,88.23
2017-02-04T05:21:14.802Z,88.28
2017-02-04T05:22:15.332Z,88.52
2017-02-04T05:23:15.863Z,88.84
2017-02-04T05:24:16.403Z,88.89
2017-02-04T05:25:16.919Z,88.50
2017-02-04T05:26:17.457Z,89.03
2017-02-04T05:27:17.979Z,89.03
2017-02-04T05:28:18.520Z,89.43
2017-02-04T05:29:19.044Z,89.40
2017-02-04T05:30:19.581Z,89.22
2017-02-04T05:31:20.105Z,89.08
2017-02-04T05:32:20.780Z,88.57
2017-02-04T05:33:21.163Z,88.76
2017-02-04T05:34:21.845Z,88.79
2017-02-04T05:35:22.225Z,88.60
2017-02-04T05:36:22.764Z,88.17
2017-02-04T05:37:23.289Z,88.15
2017-02-04T05:38:23.818Z,87.82
2017-02-04T05:39:24.345Z,87.69
2017-02-04T05:40:24.879Z,87.98
2017-02-04T05:41:25.405Z,88.04
2017-02-04T05:42:25.943Z,88.12
2017-02-04T05:43:26.462Z,87.82
2017-02-04T05:44:27.000Z,87.59
2017-02-04T05:45:27.526Z,87.82
2017-02-04T05:46:28.203Z,87.67
2017-02-04T05:47:28.590Z,87.18
2017-02-04T05:48:29.129Z,87.56
2017-02-04T05:49:29.653Z,87.45
2017-02-04T05:50:30.191Z,87.34
2017-02-04T05:51:30.728Z,87.37
2017-02-04T05:52:31.409Z,87.32
2017-02-04T05:53:31.937Z,87.21
2017-02-04T05:54:32.336Z,87.72
2017-02-04T05:55:32.854Z,87.24
2017-02-04T05:56:33.388Z,88.09
2017-02-04T05:57:34.060Z,87.88
2017-02-04T05:58:34.598Z,87.85
2017-02-04T05:59:34.994Z,88.07
2017-02-04T06:00:35.653Z,88.17
2017-02-04T06:01:36.039Z,88.20
2017-02-04T06:02:36.570Z,88.52
2017-02-04T06:03:37.095Z,88.33
2017-02-04T06:04:37.772Z,88.01
2017-02-04T06:05:38.158Z,88.44
2017-02-04T06:06:38.692Z,88.62
2017-02-04T06:07:39.216Z,88.57
2017-02-04T06:08:39.756Z,88.76
2017-02-04T06:09:40.423Z,88.07
2017-02-04T06:10:40.815Z,88.33
2017-02-04T06:11:41.345Z,88.09
2017-02-04T06:12:42.022Z,88.17
2017-02-04T06:13:42.408Z,88.23
2017-02-04T06:14:42.943Z,87.88
2017-02-04T06:15:43.466Z,88.50
2017-02-04T06:16:44.151Z,88.20
2017-02-04T06:17:44.548Z,88.46
2017-02-04T06:18:45.123Z,88.46
2017-02-04T06:19:45.611Z,88.50
2017-02-04T06:20:46.152Z,89.08
2017-02-04T06:21:46.682Z,88.17
2017-02-04T06:22:47.363Z,88.97
2017-02-04T06:23:47.781Z,89.03
2017-02-04T06:24:48.305Z,89.03
2017-02-04T06:25:48.820Z,88.89
2017-02-04T06:26:49.367Z,88.50
2017-02-04T06:27:50.027Z,88.65
2017-02-04T06:28:50.557Z,88.62
2017-02-04T06:29:50.948Z,88.07
2017-02-04T06:30:51.630Z,88.57
2017-02-04T06:31:52.016Z,88.23
2017-02-04T06:32:52.567Z,87.69
2017-02-04T06:33:53.090Z,88.04
2017-02-04T06:34:53.636Z,87.45
2017-02-04T06:35:54.151Z,87.32
2017-02-04T06:36:54.846Z,87.67
2017-02-04T06:37:55.354Z,88.17
2017-02-04T06:38:55.744Z,88.20
2017-02-04T06:39:56.275Z,89.19
2017-02-04T06:40:56.817Z,88.79
2017-02-04T06:41:57.331Z,88.89
2017-02-04T06:42:57.874Z,87.82
2017-02-04T06:43:58.393Z,88.52
2017-02-04T06:44:58.935Z,88.50
2017-02-04T06:45:59.455Z,88.62
2017-02-04T06:46:59.989Z,88.68
2017-02-04T06:48:00.516Z,88.62
2017-02-04T06:49:01.057Z,88.28
2017-02-04T06:50:01.721Z,88.76
2017-02-04T06:51:02.119Z,89.22
2017-02-04T06:52:02.637Z,88.52
2017-02-04T06:53:03.305Z,89.27
2017-02-04T06:54:03.696Z,89.22
2017-02-04T06:55:04.372Z,88.87
2017-02-04T06:56:04.760Z,88.79
2017-02-04T06:57:05.285Z,89.06
2017-02-04T06:58:05.826Z,89.75
2017-02-04T06:59:06.348Z,89.16
2017-02-04T07:00:06.877Z,89.56
2017-02-04T07:01:07.559Z,89.54
2017-02-04T07:02:07.941Z,89.16
2017-02-04T07:03:08.624Z,89.54
2017-02-04T07:04:09.012Z,89.62
2017-02-04T07:05:09.684Z,89.80
2017-02-04T07:06:10.068Z,90.28
2017-02-04T07:07:10.597Z,90.61
2017-02-04T07:08:11.129Z,90.58
2017-02-04T07:09:11.663Z,90.66
2017-02-04T07:10:12.199Z,90.50
2017-02-04T07:11:12.733Z,89.78
2017-02-04T07:12:13.258Z,89.86
2017-02-04T07:13:13.802Z,89.70
2017-02-04T07:14:14.329Z,89.56
2017-02-04T07:15:14.871Z,89.64
2017-02-04T07:16:15.393Z,89.32
2017-02-04T07:17:16.065Z,89.45
2017-02-04T07:18:16.460Z,89.62
2017-02-04T07:19:16.976Z,89.72
2017-02-04T07:20:17.654Z,89.83
2017-02-04T07:21:18.184Z,89.56
2017-02-04T07:22:18.715Z,89.97
2017-02-04T07:23:19.248Z,90.15
2017-02-04T07:24:19.628Z,90.28
2017-02-04T07:25:20.306Z,90.55
2017-02-04T07:26:20.836Z,90.63
2017-02-04T07:27:21.370Z,91.84
2017-02-04T07:28:21.751Z,92.70
2017-02-04T07:29:22.296Z,92.76
2017-02-04T07:30:22.825Z,92.70
2017-02-04T07:31:23.489Z,92.68
2017-02-04T07:32:24.015Z,92.57
2017-02-04T07:33:24.414Z,92.46
2017-02-04T07:34:24.930Z,92.51
2017-02-04T07:35:25.468Z,91.95
2017-02-04T07:36:25.993Z,91.25
2017-02-04T07:37:26.528Z,91.14
2017-02-04T07:38:27.054Z,91.11
2017-02-04T07:39:27.580Z,91.17
2017-02-04T07:40:28.102Z,91.14
2017-02-04T07:41:28.646Z,91.30
2017-02-04T07:42:29.169Z,91.11
2017-02-04T07:43:29.699Z,90.88
2017-02-04T07:44:30.224Z,90.77
2017-02-04T07:45:30.758Z,90.31
2017-02-04T07:46:31.279Z,90.26
2017-02-04T07:47:31.960Z,90.20
2017-02-04T07:48:32.342Z,89.72
2017-02-04T07:49:33.018Z,89.91
2017-02-04T07:50:33.397Z,89.24
2017-02-04T07:51:33.934Z,88.81
2017-02-04T07:52:34.468Z,88.81
2017-02-04T07:53:35.139Z,88.44
2017-02-04T07:54:35.529Z,88.20
2017-02-04T07:55:36.073Z,87.82
2017-02-04T07:56:36.891Z,87.74
2017-02-04T07:57:37.273Z,86.65
2017-02-04T07:58:37.658Z,86.28
2017-02-04T07:59:38.333Z,86.22
2017-02-04T08:00:38.858Z,85.75
2017-02-04T08:01:39.248Z,85.69
2017-02-04T08:02:39.775Z,85.80
2017-02-04T08:03:40.459Z,85.48
2017-02-04T08:04:40.835Z,85.66
2017-02-04T08:05:41.380Z,84.92
2017-02-04T08:06:41.901Z,84.95
2017-02-04T08:07:42.434Z,83.83
2017-02-04T08:08:42.961Z,84.15
2017-02-04T08:09:43.500Z,85.05
2017-02-04T08:10:44.020Z,82.88
2017-02-04T08:11:44.562Z,83.38
2017-02-04T08:12:45.082Z,83.49
2017-02-04T08:13:45.622Z,83.14
2017-02-04T08:14:46.140Z,83.38
2017-02-04T08:15:46.680Z,82.82
2017-02-04T08:16:47.201Z,83.28
2017-02-04T08:17:47.744Z,83.01
2017-02-04T08:18:48.406Z,82.77
2017-02-04T08:19:48.801Z,80.79
2017-02-04T08:20:49.316Z,81.05
2017-02-04T08:21:49.850Z,81.00
2017-02-04T08:22:50.377Z,79.94
2017-02-04T08:23:50.916Z,80.55
2017-02-04T08:24:51.445Z,80.52
2017-02-04T08:25:51.972Z,81.16
2017-02-04T08:26:52.493Z,80.89
2017-02-04T08:27:53.035Z,79.36
2017-02-04T08:28:53.555Z,78.49
2017-02-04T08:29:54.091Z,80.52
2017-02-04T08:30:54.617Z,78.75
2017-02-04T08:31:55.294Z,78.73
2017-02-04T08:32:55.820Z,78.47
2017-02-04T08:33:56.207Z,80.73
2017-02-04T08:34:56.734Z,79.10
2017-02-04T08:35:57.417Z,78.28
2017-02-04T08:36:57.942Z,77.41
2017-02-04T08:37:58.338Z,78.44
2017-02-04T08:38:58.864Z,78.28
2017-02-04T08:39:59.399Z,80.39
2017-02-04T08:40:59.921Z,76.57
2017-02-04T08:42:00.453Z,75.78
2017-02-04T08:43:00.979Z,77.12
2017-02-04T08:44:01.655Z,76.57
2017-02-04T08:45:02.037Z,77.67
2017-02-04T08:46:02.594Z,78.09
2017-02-04T08:47:03.244Z,76.23
2017-02-04T08:48:03.639Z,77.41
2017-02-04T08:49:04.161Z,77.49
2017-02-04T08:50:04.840Z,76.39
2017-02-04T08:51:05.366Z,76.67
2017-02-04T08:52:05.761Z,76.26
2017-02-04T08:53:06.299Z,76.15
2017-02-04T08:54:06.820Z,76.57
2017-02-04T08:55:07.366Z,75.92
2017-02-04T08:56:08.018Z,77.36
2017-02-04T08:57:08.404Z,77.28
2017-02-04T08:58:09.076Z,77.36
2017-02-04T08:59:09.604Z,75.62
2017-02-04T09:00:10.031Z,77.51
2017-02-04T09:01:10.524Z,75.57
2017-02-04T09:02:11.060Z,76.41
2017-02-04T09:03:11.582Z,75.39
2017-02-04T09:04:12.124Z,75.92
2017-02-04T09:05:12.645Z,73.55
2017-02-04T09:06:13.181Z,74.76
2017-02-04T09:07:13.845Z,75.49
2017-02-04T09:08:14.375Z,73.16
2017-02-04T09:09:14.753Z,73.85
2017-02-04T09:10:15.292Z,73.53
2017-02-04T09:11:15.817Z,72.95
2017-02-04T09:12:16.345Z,71.70
2017-02-04T09:13:16.881Z,72.75
2017-02-04T09:14:17.418Z,69.96
2017-02-04T09:15:18.087Z,70.87
2017-02-04T09:16:18.622Z,69.82
2017-02-04T09:17:19.008Z,71.26
2017-02-04T09:18:19.691Z,69.54
2017-02-04T09:19:20.073Z,70.45
2017-02-04T09:20:20.752Z,68.24
2017-02-04T09:21:21.136Z,68.71
2017-02-04T09:22:21.672Z,67.77
2017-02-04T09:23:22.201Z,68.47
2017-02-04T09:24:22.727Z,69.96
2017-02-04T09:25:23.256Z,66.64
2017-02-04T09:26:23.932Z,66.74
2017-02-04T09:27:24.314Z,65.73
2017-02-04T09:28:24.993Z,66.58
2017-02-04T09:29:25.520Z,66.14
2017-02-04T09:30:26.054Z,66.66
2017-02-04T09:31:26.433Z,66.84
2017-02-04T09:32:26.976Z,67.41
2017-02-04T09:33:27.495Z,65.58
2017-02-04T09:34:28.027Z,65.14
2017-02-04T09:35:28.554Z,66.40
2017-02-04T09:36:29.232Z,67.18
2017-02-04T09:37:29.618Z,68.04
2017-02-04T09:38:30.151Z,65.39
2017-02-04T09:39:30.674Z,64.44
2017-02-04T09:40:31.351Z,67.54
2017-02-04T09:41:31.737Z,62.82
2017-02-04T09:42:32.411Z,63.72
2017-02-04T09:43:32.794Z,63.87
2017-02-04T09:44:33.327Z,66.20
2017-02-04T09:45:33.857Z,66.27
2017-02-04T09:46:34.534Z,66.61
2017-02-04T09:47:34.921Z,64.18
2017-02-04T09:48:35.451Z,63.51
2017-02-04T09:49:35.979Z,63.79
2017-02-04T09:50:36.512Z,64.49
2017-02-04T09:51:37.039Z,65.60
2017-02-04T09:52:37.579Z,65.65
2017-02-04T09:53:38.397Z,65.68
2017-02-04T09:54:38.644Z,64.00
2017-02-04T09:55:39.158Z,66.01
2017-02-04T09:56:39.693Z,66.33
2017-02-04T09:57:40.223Z,66.87
2017-02-04T09:58:40.904Z,65.47
2017-02-04T09:59:41.437Z,64.23
2017-02-04T10:00:41.837Z,66.22
2017-02-04T10:01:42.366Z,65.55
2017-02-04T10:02:43.040Z,68.32
2017-02-04T10:03:43.421Z,67.77
2017-02-04T10:04:43.967Z,66.37
2017-02-04T10:05:44.483Z,65.29
2017-02-04T10:06:45.020Z,66.22
2017-02-04T10:07:45.542Z,66.53
2017-02-04T10:08:46.220Z,65.18
2017-02-04T10:09:46.602Z,66.04
2017-02-04T10:10:47.144Z,63.28
2017-02-04T10:11:47.667Z,62.87
2017-02-04T10:12:48.202Z,64.10
2017-02-04T10:13:48.724Z,64.13
2017-02-04T10:14:49.248Z,64.38
2017-02-04T10:15:49.777Z,63.92
2017-02-04T10:16:50.326Z,64.54
2017-02-04T10:17:50.844Z,63.13
2017-02-04T10:18:51.371Z,64.95
2017-02-04T10:19:51.906Z,64.82
2017-02-04T10:20:52.428Z,64.88
2017-02-04T10:21:53.106Z,65.55
2017-02-04T10:22:53.642Z,65.73
2017-02-04T10:23:54.024Z,66.37
2017-02-04T10:24:54.561Z,64.57
2017-02-04T10:25:55.082Z,64.59
2017-02-04T10:26:55.756Z,65.14
2017-02-04T10:27:56.142Z,64.26
2017-02-04T10:28:56.675Z,64.98
2017-02-04T10:29:57.200Z,64.15
2017-02-04T10:30:57.743Z,65.01
2017-02-04T10:31:58.428Z,64.70
2017-02-04T10:32:58.795Z,64.36
2017-02-04T10:33:59.333Z,63.54
2017-02-04T10:34:59.869Z,62.63
2017-02-04T10:36:00.383Z,63.54
2017-02-04T10:37:01.060Z,64.67
2017-02-04T10:38:01.445Z,64.34
2017-02-04T10:39:01.979Z,65.01
2017-02-04T10:40:02.520Z,64.23
2017-02-04T10:41:03.190Z,64.57
2017-02-04T10:42:03.576Z,64.38
2017-02-04T10:43:04.114Z,65.70
2017-02-04T10:44:04.633Z,64.31
2017-02-04T10:45:05.312Z,64.72
2017-02-04T10:46:05.704Z,64.80
2017-02-04T10:47:06.229Z,63.69
2017-02-04T10:48:06.757Z,63.20
2017-02-04T10:49:07.434Z,62.69
2017-02-04T10:50:07.817Z,63.33
2017-02-04T10:51:08.353Z,62.25
2017-02-04T10:52:08.876Z,62.82
2017-02-04T10:53:09.426Z,61.94
2017-02-04T10:54:09.936Z,60.53
2017-02-04T10:55:10.468Z,61.66
2017-02-04T10:56:10.997Z,62.22
2017-02-04T10:57:11.540Z,61.04
2017-02-04T10:58:12.059Z,62.20
2017-02-04T10:59:12.590Z,59.50
2017-02-04T11:00:13.134Z,60.71
2017-02-04T11:01:13.652Z,62.99
2017-02-04T11:02:14.178Z,61.66
2017-02-04T11:03:14.712Z,60.86
2017-02-04T11:04:15.235Z,60.12
2017-02-04T11:05:15.774Z,59.65
2017-02-04T11:06:16.292Z,57.05
2017-02-04T11:07:16.970Z,57.00
2017-02-04T11:08:17.348Z,58.35
2017-02-04T11:09:17.880Z,58.92
2017-02-04T11:10:18.447Z,58.84
2017-02-04T11:11:19.112Z,59.76
2017-02-04T11:12:19.473Z,59.76
2017-02-04T11:13:19.997Z,59.63
2017-02-04T11:14:20.530Z,58.66
2017-02-04T11:15:21.205Z,59.32
2017-02-04T11:16:21.590Z,59.02
2017-02-04T11:17:22.133Z,64.00
2017-02-04T11:18:22.652Z,61.56
2017-02-04T11:19:23.333Z,61.30
2017-02-04T11:20:23.727Z,62.22
2017-02-04T11:21:24.258Z,63.28
2017-02-04T11:22:24.933Z,63.59
2017-02-04T11:23:25.334Z,64.36
2017-02-04T11:24:26.000Z,61.40
2017-02-04T11:25:26.385Z,61.14
2017-02-04T11:26:26.916Z,62.63
2017-02-04T11:27:27.443Z,62.12
2017-02-04T11:28:27.981Z,61.94
2017-02-04T11:29:28.536Z,61.63
2017-02-04T11:30:29.033Z,61.76
2017-02-04T11:31:29.562Z,62.58
2017-02-04T11:32:30.089Z,63.26
2017-02-04T11:33:30.620Z,63.46
2017-02-04T11:34:31.146Z,61.89
2017-02-04T11:35:31.683Z,63.07
2017-02-04T11:36:32.205Z,63.43
2017-02-04T11:37:32.738Z,63.64
2017-02-04T11:38:33.265Z,62.35
2017-02-04T11:39:33.937Z,62.87
2017-02-04T11:40:34.470Z,63.72
2017-02-04T11:41:34.866Z,64.23
2017-02-04T11:42:35.385Z,64.62
2017-02-04T11:43:35.928Z,64.49
2017-02-04T11:44:36.448Z,64.52
2017-02-04T11:45:36.977Z,65.14
2017-02-04T11:46:37.652Z,64.62
2017-02-04T11:47:38.039Z,63.72
2017-02-04T11:48:38.710Z,65.47
2017-02-04T11:49:39.287Z,64.98
2017-02-04T11:50:39.620Z,65.42
2017-02-04T11:51:40.297Z,64.34
2017-02-04T11:52:40.689Z,64.23
2017-02-04T11:53:41.220Z,64.00
2017-02-04T11:54:41.745Z,64.38
2017-02-04T11:55:42.281Z,63.35
2017-02-04T11:56:42.803Z,63.74
2017-02-04T11:57:43.336Z,64.75
2017-02-04T11:58:43.865Z,64.82
2017-02-04T11:59:44.407Z,64.49
2017-02-04T12:00:44.923Z,64.75
2017-02-04T12:01:45.456Z,64.95
2017-02-04T12:02:45.989Z,65.37
2017-02-04T12:03:46.538Z,64.72
2017-02-04T12:04:47.065Z,64.52
2017-02-04T12:05:47.605Z,64.13
2017-02-04T12:06:48.126Z,65.03
2017-02-04T12:07:48.665Z,64.78
2017-02-04T12:08:49.193Z,65.70
2017-02-04T12:09:49.873Z,65.18
2017-02-04T12:10:50.254Z,65.83
2017-02-04T12:11:50.785Z,65.99
2017-02-04T12:12:51.312Z,66.43
2017-02-04T12:13:51.844Z,66.40
2017-02-04T12:14:52.365Z,66.20
2017-02-04T12:15:53.043Z,65.65
2017-02-04T12:16:53.429Z,65.14
2017-02-04T12:17:54.101Z,66.06
2017-02-04T12:18:54.477Z,66.53
2017-02-04T12:19:55.017Z,66.71
2017-02-04T12:20:55.539Z,66.45
2017-02-04T12:21:56.083Z,65.83
2017-02-04T12:22:56.604Z,66.25
2017-02-04T12:23:57.136Z,66.27
2017-02-04T12:24:57.659Z,67.16
2017-02-04T12:25:58.336Z,66.77
2017-02-04T12:26:58.722Z,65.39
2017-02-04T12:27:59.255Z,64.36
2017-02-04T12:28:59.924Z,65.16
2017-02-04T12:30:00.315Z,65.08
2017-02-04T12:31:00.843Z,66.14
2017-02-04T12:32:01.382Z,65.06
2017-02-04T12:33:01.901Z,63.98
2017-02-04T12:34:02.574Z,64.46
2017-02-04T12:35:02.962Z,63.35
2017-02-04T12:36:03.493Z,64.18
2017-02-04T12:37:04.035Z,65.01
2017-02-04T12:38:04.694Z,64.52
2017-02-04T12:39:05.075Z,63.49
2017-02-04T12:40:05.608Z,64.23
2017-02-04T12:41:06.138Z,63.26
2017-02-04T12:42:06.669Z,62.69
2017-02-04T12:43:07.194Z,62.20
2017-02-04T12:44:07.875Z,62.38
2017-02-04T12:45:08.411Z,62.77
2017-02-04T12:46:08.804Z,61.76
2017-02-04T12:47:09.329Z,61.97
2017-02-04T12:48:09.874Z,61.50
2017-02-04T12:49:10.391Z,61.61
2017-02-04T12:50:10.922Z,61.46
2017-02-04T12:51:11.454Z,64.38
2017-02-04T12:52:12.135Z,60.94
2017-02-04T12:53:12.544Z,60.09
2017-02-04T12:54:13.061Z,58.71
2017-02-04T12:55:13.578Z,59.30
2017-02-04T12:56:14.254Z,59.20
2017-02-04T12:57:14.783Z,59.65
2017-02-04T12:58:15.182Z,60.17
2017-02-04T12:59:15.705Z,58.76